sensor_id;sensor_type;location;lat;lon;timestamp;pressure;altitude;pressure_sealevel;temperature;humidity
65872;BME280;52653;50.080;21.992;2022-08-21T00:01:46;98648.05;;;20.38;77.02
65872;BME280;52653;50.080;21.992;2022-08-21T00:04:31;98649.09;;;20.35;77.00
65872;BME280;52653;50.080;21.992;2022-08-21T00:07:30;98647.67;;;20.32;77.20
65872;BME280;52653;50.080;21.992;2022-08-21T00:10:10;98650.67;;;20.32;77.00
65872;BME280;52653;50.080;21.992;2022-08-21T00:12:56;98643.95;;;20.31;77.15
65872;BME280;52653;50.080;21.992;2022-08-21T00:15:43;98641.39;;;20.29;76.90
65872;BME280;52653;50.080;21.992;2022-08-21T00:18:33;98639.73;;;20.24;76.97
65872;BME280;52653;50.080;21.992;2022-08-21T00:21:30;98636.27;;;20.16;77.05
65872;BME280;52653;50.080;21.992;2022-08-21T00:24:37;98634.58;;;20.05;76.78
65872;BME280;52653;50.080;21.992;2022-08-21T00:27:35;98628.70;;;19.95;76.92
65872;BME280;52653;50.080;21.992;2022-08-21T00:30:35;98624.64;;;19.91;77.35
65872;BME280;52653;50.080;21.992;2022-08-21T00:33:16;98620.04;;;19.91;77.33
65872;BME280;52653;50.080;21.992;2022-08-21T00:36:14;98615.19;;;19.91;77.52
65872;BME280;52653;50.080;21.992;2022-08-21T00:39:12;98612.80;;;19.89;77.43
65872;BME280;52653;50.080;21.992;2022-08-21T00:42:02;98614.18;;;19.87;77.32
65872;BME280;52653;50.080;21.992;2022-08-21T00:44:58;98612.46;;;19.86;77.20
65872;BME280;52653;50.080;21.992;2022-08-21T00:47:52;98610.27;;;19.78;77.53
65872;BME280;52653;50.080;21.992;2022-08-21T00:50:44;98605.92;;;19.66;77.89
65872;BME280;52653;50.080;21.992;2022-08-21T00:53:47;98606.19;;;19.58;78.14
65872;BME280;52653;50.080;21.992;2022-08-21T00:56:30;98604.68;;;19.52;78.09
65872;BME280;52653;50.080;21.992;2022-08-21T00:59:35;98596.38;;;19.48;78.33
65872;BME280;52653;50.080;21.992;2022-08-21T01:02:34;98591.11;;;19.47;78.61
65872;BME280;52653;50.080;21.992;2022-08-21T01:05:22;98587.59;;;19.42;78.56
65872;BME280;52653;50.080;21.992;2022-08-21T01:08:19;98587.48;;;19.35;78.26
65872;BME280;52653;50.080;21.992;2022-08-21T01:11:31;98589.27;;;19.28;78.37
65872;BME280;52653;50.080;21.992;2022-08-21T01:14:27;98590.84;;;19.25;78.70
65872;BME280;52653;50.080;21.992;2022-08-21T01:17:29;98589.07;;;19.25;78.47
65872;BME280;52653;50.080;21.992;2022-08-21T01:20:31;98591.19;;;19.25;78.75
65872;BME280;52653;50.080;21.992;2022-08-21T01:23:09;98591.58;;;19.24;78.86
65872;BME280;52653;50.080;21.992;2022-08-21T01:25:45;98592.37;;;19.20;79.26
65872;BME280;52653;50.080;21.992;2022-08-21T01:28:49;98593.61;;;19.12;79.34
65872;BME280;52653;50.080;21.992;2022-08-21T01:31:52;98597.05;;;19.08;79.27
65872;BME280;52653;50.080;21.992;2022-08-21T01:34:51;98594.84;;;19.06;79.47
65872;BME280;52653;50.080;21.992;2022-08-21T01:37:39;98599.36;;;19.04;79.40
65872;BME280;52653;50.080;21.992;2022-08-21T01:40:34;98595.89;;;19.03;79.53
65872;BME280;52653;50.080;21.992;2022-08-21T01:43:37;98595.89;;;19.00;79.52
65872;BME280;52653;50.080;21.992;2022-08-21T01:46:41;98593.11;;;19.02;79.62
65872;BME280;52653;50.080;21.992;2022-08-21T01:49:38;98588.70;;;19.01;79.54
65872;BME280;52653;50.080;21.992;2022-08-21T01:52:33;98584.40;;;19.01;79.60
65872;BME280;52653;50.080;21.992;2022-08-21T01:56:00;98583.61;;;19.00;79.24
65872;BME280;52653;50.080;21.992;2022-08-21T01:59:04;98583.46;;;18.93;79.06
65872;BME280;52653;50.080;21.992;2022-08-21T02:02:04;98582.52;;;18.84;79.18
65872;BME280;52653;50.080;21.992;2022-08-21T02:05:02;98587.27;;;18.81;79.54
65872;BME280;52653;50.080;21.992;2022-08-21T02:08:05;98586.40;;;18.80;79.35
65872;BME280;52653;50.080;21.992;2022-08-21T02:11:06;98583.15;;;18.78;79.62
65872;BME280;52653;50.080;21.992;2022-08-21T02:14:05;98580.24;;;18.79;79.57
65872;BME280;52653;50.080;21.992;2022-08-21T02:17:02;98586.73;;;18.77;79.75
65872;BME280;52653;50.080;21.992;2022-08-21T02:20:02;98587.85;;;18.69;79.51
65872;BME280;52653;50.080;21.992;2022-08-21T02:23:06;98588.77;;;18.65;79.72
65872;BME280;52653;50.080;21.992;2022-08-21T02:26:07;98585.30;;;18.56;79.98
65872;BME280;52653;50.080;21.992;2022-08-21T02:29:08;98580.24;;;18.47;80.57
65872;BME280;52653;50.080;21.992;2022-08-21T02:31:53;98573.42;;;18.45;80.58
65872;BME280;52653;50.080;21.992;2022-08-21T02:34:50;98573.93;;;18.42;80.24
65872;BME280;52653;50.080;21.992;2022-08-21T02:37:49;98575.18;;;18.38;80.46
65872;BME280;52653;50.080;21.992;2022-08-21T02:40:38;98565.59;;;18.35;80.29
65872;BME280;52653;50.080;21.992;2022-08-21T02:43:31;98561.40;;;18.33;80.42
65872;BME280;52653;50.080;21.992;2022-08-21T02:46:20;98565.84;;;18.33;80.46
65872;BME280;52653;50.080;21.992;2022-08-21T02:49:14;98570.05;;;18.31;80.45
65872;BME280;52653;50.080;21.992;2022-08-21T02:52:08;98573.05;;;18.31;80.70
65872;BME280;52653;50.080;21.992;2022-08-21T02:55:06;98573.64;;;18.34;80.72
65872;BME280;52653;50.080;21.992;2022-08-21T02:57:56;98569.17;;;18.38;80.68
65872;BME280;52653;50.080;21.992;2022-08-21T03:00:56;98569.19;;;18.40;80.62
65872;BME280;52653;50.080;21.992;2022-08-21T03:03:52;98570.61;;;18.41;80.36
65872;BME280;52653;50.080;21.992;2022-08-21T03:07:02;98573.46;;;18.37;80.05
65872;BME280;52653;50.080;21.992;2022-08-21T03:10:06;98576.29;;;18.34;80.06
65872;BME280;52653;50.080;21.992;2022-08-21T03:13:05;98580.42;;;18.33;80.15
65872;BME280;52653;50.080;21.992;2022-08-21T03:15:59;98582.55;;;18.33;80.33
65872;BME280;52653;50.080;21.992;2022-08-21T03:19:07;98576.88;;;18.33;80.36
65872;BME280;52653;50.080;21.992;2022-08-21T03:22:02;98574.27;;;18.32;80.25
65872;BME280;52653;50.080;21.992;2022-08-21T03:25:03;98571.45;;;18.31;80.15
65872;BME280;52653;50.080;21.992;2022-08-21T03:28:02;98570.08;;;18.30;79.99
65872;BME280;52653;50.080;21.992;2022-08-21T03:31:06;98567.76;;;18.27;80.08
65872;BME280;52653;50.080;21.992;2022-08-21T03:34:02;98570.34;;;18.21;80.22
65872;BME280;52653;50.080;21.992;2022-08-21T03:36:59;98567.85;;;18.14;80.30
65872;BME280;52653;50.080;21.992;2022-08-21T03:39:56;98565.25;;;18.05;80.36
65872;BME280;52653;50.080;21.992;2022-08-21T03:42:51;98564.13;;;17.96;80.56
65872;BME280;52653;50.080;21.992;2022-08-21T03:45:48;98564.20;;;17.87;80.70
65872;BME280;52653;50.080;21.992;2022-08-21T03:48:46;98561.05;;;17.82;80.87
65872;BME280;52653;50.080;21.992;2022-08-21T03:51:42;98560.58;;;17.81;80.96
65872;BME280;52653;50.080;21.992;2022-08-21T03:54:55;98562.95;;;17.80;80.78
65872;BME280;52653;50.080;21.992;2022-08-21T03:57:52;98559.88;;;17.81;81.04
65872;BME280;52653;50.080;21.992;2022-08-21T04:00:29;98555.65;;;17.84;80.87
65872;BME280;52653;50.080;21.992;2022-08-21T04:03:26;98552.64;;;17.87;80.96
65872;BME280;52653;50.080;21.992;2022-08-21T04:06:21;98558.19;;;17.89;80.68
65872;BME280;52653;50.080;21.992;2022-08-21T04:09:20;98558.63;;;17.92;80.68
65872;BME280;52653;50.080;21.992;2022-08-21T04:12:18;98561.95;;;17.93;80.53
65872;BME280;52653;50.080;21.992;2022-08-21T04:15:23;98564.73;;;17.98;80.87
65872;BME280;52653;50.080;21.992;2022-08-21T04:18:30;98569.16;;;18.09;80.78
65872;BME280;52653;50.080;21.992;2022-08-21T04:21:40;98575.04;;;18.19;80.63
65872;BME280;52653;50.080;21.992;2022-08-21T04:24:35;98579.15;;;18.26;80.76
65872;BME280;52653;50.080;21.992;2022-08-21T04:27:41;98587.33;;;18.33;80.76
65872;BME280;52653;50.080;21.992;2022-08-21T04:30:39;98588.71;;;18.41;80.98
65872;BME280;52653;50.080;21.992;2022-08-21T04:33:30;98585.48;;;18.49;80.99
65872;BME280;52653;50.080;21.992;2022-08-21T04:36:31;98581.39;;;18.56;80.80
65872;BME280;52653;50.080;21.992;2022-08-21T04:39:27;98581.10;;;18.66;80.64
65872;BME280;52653;50.080;21.992;2022-08-21T04:42:40;98582.29;;;18.77;80.56
65872;BME280;52653;50.080;21.992;2022-08-21T04:45:39;98583.75;;;18.87;80.24
65872;BME280;52653;50.080;21.992;2022-08-21T04:48:34;98589.15;;;18.96;80.00
65872;BME280;52653;50.080;21.992;2022-08-21T04:51:25;98593.21;;;19.03;79.57
65872;BME280;52653;50.080;21.992;2022-08-21T04:54:21;98593.73;;;19.10;79.56
65872;BME280;52653;50.080;21.992;2022-08-21T04:57:16;98588.60;;;19.20;79.53
65872;BME280;52653;50.080;21.992;2022-08-21T05:00:11;98594.45;;;19.27;79.32
65872;BME280;52653;50.080;21.992;2022-08-21T05:02:58;98595.61;;;19.32;79.13
65872;BME280;52653;50.080;21.992;2022-08-21T05:05:52;98596.27;;;19.40;79.03
65872;BME280;52653;50.080;21.992;2022-08-21T05:08:36;98600.05;;;19.56;78.88
65872;BME280;52653;50.080;21.992;2022-08-21T05:11:27;98598.11;;;19.75;78.79
65872;BME280;52653;50.080;21.992;2022-08-21T05:14:22;98608.55;;;19.99;78.30
65872;BME280;52653;50.080;21.992;2022-08-21T05:16:54;98605.14;;;20.15;77.88
65872;BME280;52653;50.080;21.992;2022-08-21T05:19:26;98610.87;;;20.30;77.13
65872;BME280;52653;50.080;21.992;2022-08-21T05:22:18;98608.95;;;20.46;77.04
65872;BME280;52653;50.080;21.992;2022-08-21T05:24:52;98605.21;;;20.55;76.23
65872;BME280;52653;50.080;21.992;2022-08-21T05:27:36;98602.30;;;20.56;75.97
65872;BME280;52653;50.080;21.992;2022-08-21T05:30:33;98599.77;;;20.56;76.05
65872;BME280;52653;50.080;21.992;2022-08-21T05:33:26;98600.87;;;20.59;76.24
65872;BME280;52653;50.080;21.992;2022-08-21T05:36:09;98600.10;;;20.69;76.25
65872;BME280;52653;50.080;21.992;2022-08-21T05:39:01;98603.64;;;20.88;76.21
65872;BME280;52653;50.080;21.992;2022-08-21T05:41:37;98604.48;;;21.06;76.02
65872;BME280;52653;50.080;21.992;2022-08-21T05:44:29;98599.45;;;21.28;75.28
65872;BME280;52653;50.080;21.992;2022-08-21T05:47:24;98599.38;;;21.44;74.60
65872;BME280;52653;50.080;21.992;2022-08-21T05:50:09;98595.41;;;21.59;74.13
65872;BME280;52653;50.080;21.992;2022-08-21T05:52:41;98598.98;;;21.65;73.46
65872;BME280;52653;50.080;21.992;2022-08-21T05:55:36;98594.94;;;21.72;72.71
65872;BME280;52653;50.080;21.992;2022-08-21T05:58:16;98593.59;;;21.79;72.45
65872;BME280;52653;50.080;21.992;2022-08-21T06:00:52;98592.04;;;21.87;72.27
65872;BME280;52653;50.080;21.992;2022-08-21T06:03:27;98590.08;;;21.98;72.05
65872;BME280;52653;50.080;21.992;2022-08-21T06:05:59;98593.08;;;22.16;72.13
65872;BME280;52653;50.080;21.992;2022-08-21T06:08:41;98591.80;;;22.32;70.83
65872;BME280;52653;50.080;21.992;2022-08-21T06:11:14;98593.55;;;22.46;70.71
65872;BME280;52653;50.080;21.992;2022-08-21T06:13:58;98594.98;;;22.57;70.25
65872;BME280;52653;50.080;21.992;2022-08-21T06:16:35;98593.02;;;22.65;69.55
65872;BME280;52653;50.080;21.992;2022-08-21T06:19:10;98594.83;;;22.73;69.11
65872;BME280;52653;50.080;21.992;2022-08-21T06:21:44;98593.06;;;22.78;69.16
65872;BME280;52653;50.080;21.992;2022-08-21T06:24:18;98589.18;;;22.82;68.92
65872;BME280;52653;50.080;21.992;2022-08-21T06:26:52;98587.70;;;22.92;69.11
65872;BME280;52653;50.080;21.992;2022-08-21T06:29:25;98590.44;;;23.01;68.77
65872;BME280;52653;50.080;21.992;2022-08-21T06:31:57;98589.52;;;23.12;68.54
65872;BME280;52653;50.080;21.992;2022-08-21T06:34:31;98589.77;;;23.21;68.02
65872;BME280;52653;50.080;21.992;2022-08-21T06:37:06;98593.67;;;23.32;68.24
65872;BME280;52653;50.080;21.992;2022-08-21T06:39:59;98592.08;;;23.47;67.71
65872;BME280;52653;50.080;21.992;2022-08-21T06:42:51;98588.81;;;23.55;67.10
65872;BME280;52653;50.080;21.992;2022-08-21T06:45:44;98590.89;;;23.67;66.97
65872;BME280;52653;50.080;21.992;2022-08-21T06:48:16;98593.41;;;23.77;66.90
65872;BME280;52653;50.080;21.992;2022-08-21T06:50:49;98594.98;;;23.85;66.51
65872;BME280;52653;50.080;21.992;2022-08-21T06:53:21;98591.19;;;23.93;66.31
65872;BME280;52653;50.080;21.992;2022-08-21T06:55:56;98588.25;;;24.03;66.44
65872;BME280;52653;50.080;21.992;2022-08-21T06:58:28;98584.89;;;24.10;66.08
65872;BME280;52653;50.080;21.992;2022-08-21T07:01:01;98582.77;;;24.17;65.75
65872;BME280;52653;50.080;21.992;2022-08-21T07:03:54;98584.05;;;24.26;65.55
65872;BME280;52653;50.080;21.992;2022-08-21T07:06:29;98580.70;;;24.31;64.67
65872;BME280;52653;50.080;21.992;2022-08-21T07:09:23;98578.13;;;24.37;64.79
65872;BME280;52653;50.080;21.992;2022-08-21T07:11:58;98575.36;;;24.35;63.99
65872;BME280;52653;50.080;21.992;2022-08-21T07:14:30;98575.00;;;24.30;63.81
65872;BME280;52653;50.080;21.992;2022-08-21T07:17:09;98570.77;;;24.27;63.84
65872;BME280;52653;50.080;21.992;2022-08-21T07:19:42;98570.05;;;24.24;64.26
65872;BME280;52653;50.080;21.992;2022-08-21T07:22:16;98565.73;;;24.27;64.38
65872;BME280;52653;50.080;21.992;2022-08-21T07:24:52;98566.04;;;24.40;64.74
65872;BME280;52653;50.080;21.992;2022-08-21T07:27:36;98558.95;;;24.60;64.56
65872;BME280;52653;50.080;21.992;2022-08-21T07:30:28;98565.18;;;24.80;63.26
65872;BME280;52653;50.080;21.992;2022-08-21T07:33:00;98566.34;;;24.93;63.13
65872;BME280;52653;50.080;21.992;2022-08-21T07:35:33;98565.45;;;25.05;62.75
65872;BME280;52653;50.080;21.992;2022-08-21T07:38:05;98564.13;;;25.12;62.01
65872;BME280;52653;50.080;21.992;2022-08-21T07:40:59;98564.66;;;25.19;61.62
65872;BME280;52653;50.080;21.992;2022-08-21T07:43:32;98559.26;;;25.27;61.78
65872;BME280;52653;50.080;21.992;2022-08-21T07:46:07;98556.41;;;25.35;61.57
65872;BME280;52653;50.080;21.992;2022-08-21T07:48:49;98552.20;;;25.39;61.25
65872;BME280;52653;50.080;21.992;2022-08-21T07:51:35;98550.16;;;25.44;61.05
65872;BME280;52653;50.080;21.992;2022-08-21T07:54:17;98550.85;;;25.38;60.89
65872;BME280;52653;50.080;21.992;2022-08-21T07:57:04;98544.80;;;25.37;61.84
65872;BME280;52653;50.080;21.992;2022-08-21T07:59:36;98545.87;;;25.44;61.57
65872;BME280;52653;50.080;21.992;2022-08-21T08:02:08;98549.33;;;25.50;61.13
65872;BME280;52653;50.080;21.992;2022-08-21T08:04:42;98545.11;;;25.46;60.94
65872;BME280;52653;50.080;21.992;2022-08-21T08:07:41;98543.86;;;25.46;61.22
65872;BME280;52653;50.080;21.992;2022-08-21T08:10:17;98540.85;;;25.55;61.46
65872;BME280;52653;50.080;21.992;2022-08-21T08:13:09;98540.82;;;25.71;61.44
65872;BME280;52653;50.080;21.992;2022-08-21T08:15:53;98534.45;;;25.86;60.89
65872;BME280;52653;50.080;21.992;2022-08-21T08:18:25;98538.22;;;25.95;60.36
65872;BME280;52653;50.080;21.992;2022-08-21T08:21:18;98535.19;;;26.03;60.27
65872;BME280;52653;50.080;21.992;2022-08-21T08:24:02;98534.42;;;26.08;59.65
65872;BME280;52653;50.080;21.992;2022-08-21T08:27:00;98532.52;;;26.16;59.44
65872;BME280;52653;50.080;21.992;2022-08-21T08:29:45;98530.64;;;26.21;59.01
65872;BME280;52653;50.080;21.992;2022-08-21T08:32:19;98529.17;;;26.26;59.35
65872;BME280;52653;50.080;21.992;2022-08-21T08:34:51;98527.08;;;26.33;59.25
65872;BME280;52653;50.080;21.992;2022-08-21T08:37:24;98524.65;;;26.41;58.91
65872;BME280;52653;50.080;21.992;2022-08-21T08:40:18;98517.93;;;26.51;58.96
65872;BME280;52653;50.080;21.992;2022-08-21T08:42:55;98516.72;;;26.61;58.69
65872;BME280;52653;50.080;21.992;2022-08-21T08:45:41;98516.98;;;26.73;58.14
65872;BME280;52653;50.080;21.992;2022-08-21T08:48:43;98520.88;;;26.77;57.33
65872;BME280;52653;50.080;21.992;2022-08-21T08:51:28;98520.75;;;26.79;57.54
65872;BME280;52653;50.080;21.992;2022-08-21T08:54:09;98516.77;;;26.92;57.79
65872;BME280;52653;50.080;21.992;2022-08-21T08:56:43;98520.23;;;27.05;57.44
65872;BME280;52653;50.080;21.992;2022-08-21T08:59:23;98514.81;;;27.11;56.43
65872;BME280;52653;50.080;21.992;2022-08-21T09:02:12;98512.48;;;27.27;57.08
65872;BME280;52653;50.080;21.992;2022-08-21T09:04:55;98516.48;;;27.41;56.03
65872;BME280;52653;50.080;21.992;2022-08-21T09:07:39;98510.79;;;27.48;55.71
65872;BME280;52653;50.080;21.992;2022-08-21T09:10:19;98509.96;;;27.62;55.58
65872;BME280;52653;50.080;21.992;2022-08-21T09:13:09;98507.60;;;27.70;54.89
65872;BME280;52653;50.080;21.992;2022-08-21T09:15:56;98512.45;;;27.73;54.36
65872;BME280;52653;50.080;21.992;2022-08-21T09:18:46;98506.95;;;27.79;54.93
65872;BME280;52653;50.080;21.992;2022-08-21T09:21:31;98508.05;;;27.91;54.86
65872;BME280;52653;50.080;21.992;2022-08-21T09:24:21;98505.58;;;28.07;54.30
65872;BME280;52653;50.080;21.992;2022-08-21T09:27:00;98504.02;;;28.24;53.88
65872;BME280;52653;50.080;21.992;2022-08-21T09:29:36;98507.02;;;28.44;52.63
65872;BME280;52653;50.080;21.992;2022-08-21T09:32:16;98504.45;;;28.66;52.24
65872;BME280;52653;50.080;21.992;2022-08-21T09:35:03;98502.80;;;28.90;51.50
65872;BME280;52653;50.080;21.992;2022-08-21T09:37:52;98498.77;;;29.11;50.79
65872;BME280;52653;50.080;21.992;2022-08-21T09:40:36;98491.95;;;29.35;50.31
65872;BME280;52653;50.080;21.992;2022-08-21T09:43:19;98488.08;;;29.62;50.11
65872;BME280;52653;50.080;21.992;2022-08-21T09:46:05;98487.11;;;29.88;49.80
65872;BME280;52653;50.080;21.992;2022-08-21T09:48:44;98485.44;;;30.16;48.45
65872;BME280;52653;50.080;21.992;2022-08-21T09:51:19;98480.98;;;30.34;47.66
65872;BME280;52653;50.080;21.992;2022-08-21T09:54:15;98476.73;;;30.34;46.89
65872;BME280;52653;50.080;21.992;2022-08-21T09:56:56;98474.09;;;30.46;47.35
65872;BME280;52653;50.080;21.992;2022-08-21T09:59:49;98472.91;;;30.63;46.61
65872;BME280;52653;50.080;21.992;2022-08-21T10:02:28;98469.14;;;30.82;47.22
65872;BME280;52653;50.080;21.992;2022-08-21T10:05:15;98472.55;;;31.02;46.29
65872;BME280;52653;50.080;21.992;2022-08-21T10:07:47;98473.74;;;31.20;45.04
65872;BME280;52653;50.080;21.992;2022-08-21T10:10:26;98469.42;;;31.27;44.01
65872;BME280;52653;50.080;21.992;2022-08-21T10:13:12;98471.96;;;31.34;43.93
65872;BME280;52653;50.080;21.992;2022-08-21T10:16:18;98471.39;;;31.36;43.14
65872;BME280;52653;50.080;21.992;2022-08-21T10:19:04;98472.64;;;31.32;42.87
65872;BME280;52653;50.080;21.992;2022-08-21T10:21:57;98470.77;;;31.30;43.05
65872;BME280;52653;50.080;21.992;2022-08-21T10:24:33;98466.83;;;31.32;43.36
65872;BME280;52653;50.080;21.992;2022-08-21T10:27:25;98467.13;;;31.31;43.26
65872;BME280;52653;50.080;21.992;2022-08-21T10:30:07;98468.59;;;31.31;43.66
65872;BME280;52653;50.080;21.992;2022-08-21T10:32:55;98468.48;;;31.38;43.16
65872;BME280;52653;50.080;21.992;2022-08-21T10:35:32;98468.09;;;31.40;42.62
65872;BME280;52653;50.080;21.992;2022-08-21T10:41:58;98465.59;;;31.54;42.49
65872;BME280;52653;50.080;21.992;2022-08-21T10:44:37;98464.73;;;31.42;41.91
65872;BME280;52653;50.080;21.992;2022-08-21T10:47:36;98466.83;;;31.15;42.18
65872;BME280;52653;50.080;21.992;2022-08-21T10:50:37;98467.04;;;30.96;42.58
65872;BME280;52653;50.080;21.992;2022-08-21T10:53:31;98464.43;;;30.79;42.64
65872;BME280;52653;50.080;21.992;2022-08-21T10:56:17;98457.92;;;30.72;43.46
65872;BME280;52653;50.080;21.992;2022-08-21T10:59:12;98459.65;;;30.85;43.59
65872;BME280;52653;50.080;21.992;2022-08-21T11:02:15;98467.33;;;30.81;42.81
65872;BME280;52653;50.080;21.992;2022-08-21T11:04:58;98461.79;;;30.67;42.38
65872;BME280;52653;50.080;21.992;2022-08-21T11:07:55;98455.81;;;30.75;42.55
65872;BME280;52653;50.080;21.992;2022-08-21T11:10:55;98457.79;;;30.94;43.33
65872;BME280;52653;50.080;21.992;2022-08-21T11:13:39;98458.11;;;31.21;42.49
65872;BME280;52653;50.080;21.992;2022-08-21T11:16:36;98451.80;;;31.44;41.54
65872;BME280;52653;50.080;21.992;2022-08-21T11:19:35;98448.90;;;31.63;40.29
65872;BME280;52653;50.080;21.992;2022-08-21T11:22:17;98450.85;;;31.80;39.88
65872;BME280;52653;50.080;21.992;2022-08-21T11:24:58;98446.34;;;32.05;39.76
65872;BME280;52653;50.080;21.992;2022-08-21T11:27:38;98441.70;;;32.23;38.65
65872;BME280;52653;50.080;21.992;2022-08-21T11:30:16;98437.42;;;32.29;37.99
65872;BME280;52653;50.080;21.992;2022-08-21T11:33:03;98438.77;;;32.50;38.39
65872;BME280;52653;50.080;21.992;2022-08-21T11:35:42;98432.30;;;32.70;37.35
65872;BME280;52653;50.080;21.992;2022-08-21T11:38:28;98434.09;;;32.89;36.91
65872;BME280;52653;50.080;21.992;2022-08-21T11:41:20;98432.72;;;33.01;36.63
65872;BME280;52653;50.080;21.992;2022-08-21T11:44:03;98429.49;;;33.18;36.08
65872;BME280;52653;50.080;21.992;2022-08-21T11:46:53;98435.48;;;33.29;36.50
65872;BME280;52653;50.080;21.992;2022-08-21T11:49:56;98432.44;;;33.40;36.56
65872;BME280;52653;50.080;21.992;2022-08-21T11:52:38;98435.18;;;33.45;36.01
65872;BME280;52653;50.080;21.992;2022-08-21T11:55:15;98435.89;;;33.27;35.49
65872;BME280;52653;50.080;21.992;2022-08-21T11:57:59;98436.02;;;33.15;36.09
65872;BME280;52653;50.080;21.992;2022-08-21T12:00:38;98434.40;;;33.10;35.88
65872;BME280;52653;50.080;21.992;2022-08-21T12:03:24;98434.73;;;32.97;35.10
65872;BME280;52653;50.080;21.992;2022-08-21T12:06:11;98430.61;;;32.76;35.16
65872;BME280;52653;50.080;21.992;2022-08-21T12:09:03;98428.84;;;32.54;35.13
65872;BME280;52653;50.080;21.992;2022-08-21T12:11:47;98424.22;;;32.34;35.76
65872;BME280;52653;50.080;21.992;2022-08-21T12:14:22;98426.17;;;32.09;36.22
65872;BME280;52653;50.080;21.992;2022-08-21T12:17:05;98422.64;;;31.92;37.68
65872;BME280;52653;50.080;21.992;2022-08-21T12:19:45;98422.06;;;31.87;38.00
65872;BME280;52653;50.080;21.992;2022-08-21T12:22:20;98415.94;;;31.85;38.43
65872;BME280;52653;50.080;21.992;2022-08-21T12:25:08;98413.66;;;31.81;38.19
65872;BME280;52653;50.080;21.992;2022-08-21T12:27:49;98407.77;;;31.81;38.10
65872;BME280;52653;50.080;21.992;2022-08-21T12:30:35;98412.11;;;31.85;37.88
65872;BME280;52653;50.080;21.992;2022-08-21T12:33:24;98409.11;;;32.04;37.83
65872;BME280;52653;50.080;21.992;2022-08-21T12:36:07;98405.86;;;32.25;36.98
65872;BME280;52653;50.080;21.992;2022-08-21T12:38:51;98406.50;;;32.46;36.09
65872;BME280;52653;50.080;21.992;2022-08-21T12:41:28;98404.92;;;32.50;35.94
65872;BME280;52653;50.080;21.992;2022-08-21T12:44:07;98405.67;;;32.32;36.31
65872;BME280;52653;50.080;21.992;2022-08-21T12:46:43;98399.63;;;32.08;37.15
65872;BME280;52653;50.080;21.992;2022-08-21T12:49:16;98401.52;;;31.81;37.38
65872;BME280;52653;50.080;21.992;2022-08-21T12:51:57;98404.79;;;31.53;38.56
65872;BME280;52653;50.080;21.992;2022-08-21T12:54:54;98404.41;;;31.28;39.00
65872;BME280;52653;50.080;21.992;2022-08-21T12:57:46;98405.57;;;30.93;40.05
65872;BME280;52653;50.080;21.992;2022-08-21T13:00:38;98405.13;;;30.59;41.05
65872;BME280;52653;50.080;21.992;2022-08-21T13:03:28;98400.26;;;30.32;41.61
65872;BME280;52653;50.080;21.992;2022-08-21T13:06:23;98396.95;;;30.09;42.30
65872;BME280;52653;50.080;21.992;2022-08-21T13:09:12;98397.64;;;29.95;42.73
65872;BME280;52653;50.080;21.992;2022-08-21T13:11:56;98395.45;;;29.84;42.71
65872;BME280;52653;50.080;21.992;2022-08-21T13:14:33;98397.34;;;29.78;43.42
65872;BME280;52653;50.080;21.992;2022-08-21T13:17:27;98394.84;;;29.76;43.71
65872;BME280;52653;50.080;21.992;2022-08-21T13:20:05;98390.39;;;29.70;43.72
65872;BME280;52653;50.080;21.992;2022-08-21T13:22:50;98390.23;;;29.68;43.78
65872;BME280;52653;50.080;21.992;2022-08-21T13:25:43;98392.41;;;29.61;43.54
65872;BME280;52653;50.080;21.992;2022-08-21T13:28:36;98393.29;;;29.53;43.68
65872;BME280;52653;50.080;21.992;2022-08-21T13:31:30;98396.56;;;29.46;43.80
65872;BME280;52653;50.080;21.992;2022-08-21T13:34:14;98396.70;;;29.39;44.22
65872;BME280;52653;50.080;21.992;2022-08-21T13:37:09;98395.75;;;29.30;44.44
65872;BME280;52653;50.080;21.992;2022-08-21T13:40:06;98401.02;;;29.32;44.97
65872;BME280;52653;50.080;21.992;2022-08-21T13:42:59;98407.00;;;29.26;44.63
65872;BME280;52653;50.080;21.992;2022-08-21T13:45:34;98411.07;;;29.16;45.19
65872;BME280;52653;50.080;21.992;2022-08-21T13:48:28;98414.39;;;29.04;45.23
65872;BME280;52653;50.080;21.992;2022-08-21T13:51:21;98423.46;;;28.90;45.57
65872;BME280;52653;50.080;21.992;2022-08-21T13:54:23;98426.73;;;28.81;46.13
65872;BME280;52653;50.080;21.992;2022-08-21T13:56:56;98423.88;;;28.70;46.43
65872;BME280;52653;50.080;21.992;2022-08-21T13:59:33;98425.61;;;28.62;46.76
65872;BME280;52653;50.080;21.992;2022-08-21T14:02:18;98424.55;;;28.56;47.05
65872;BME280;52653;50.080;21.992;2022-08-21T14:05:19;98426.42;;;28.48;47.14
65872;BME280;52653;50.080;21.992;2022-08-21T14:08:12;98428.15;;;28.42;47.50
65872;BME280;52653;50.080;21.992;2022-08-21T14:10:49;98433.75;;;28.37;47.49
65872;BME280;52653;50.080;21.992;2022-08-21T14:13:39;98435.20;;;28.33;47.63
65872;BME280;52653;50.080;21.992;2022-08-21T14:16:19;98437.54;;;28.29;47.96
65872;BME280;52653;50.080;21.992;2022-08-21T14:19:09;98441.86;;;28.23;47.83
65872;BME280;52653;50.080;21.992;2022-08-21T14:21:48;98442.59;;;28.15;47.96
65872;BME280;52653;50.080;21.992;2022-08-21T14:24:29;98445.64;;;28.09;48.30
65872;BME280;52653;50.080;21.992;2022-08-21T14:27:09;98451.74;;;28.04;48.48
65872;BME280;52653;50.080;21.992;2022-08-21T14:30:03;98453.11;;;27.97;48.89
65872;BME280;52653;50.080;21.992;2022-08-21T14:32:43;98459.48;;;27.92;49.30
65872;BME280;52653;50.080;21.992;2022-08-21T14:35:36;98461.23;;;27.89;49.38
65872;BME280;52653;50.080;21.992;2022-08-21T14:38:29;98463.86;;;27.80;48.93
65872;BME280;52653;50.080;21.992;2022-08-21T14:41:25;98464.30;;;27.69;49.09
65872;BME280;52653;50.080;21.992;2022-08-21T14:44:01;98470.42;;;27.59;49.27